createdAt,value
2019-02-17T00:00:38.278Z,8.68
2019-02-17T00:03:06.770Z,9.60
2019-02-17T00:05:35.220Z,10.23
2019-02-17T00:08:03.719Z,10.15
2019-02-17T00:10:32.203Z,7.87
2019-02-17T00:13:00.683Z,15.83
2019-02-17T00:15:29.203Z,7.87
2019-02-17T00:17:57.654Z,13.08
2019-02-17T00:20:26.101Z,8.88
2019-02-17T00:22:54.607Z,10.13
2019-02-17T00:25:23.090Z,9.38
2019-02-17T00:27:51.536Z,8.73
2019-02-17T00:30:20.034Z,11.15
2019-02-17T00:32:48.531Z,9.50
2019-02-17T00:35:16.927Z,10.55
2019-02-17T00:37:45.494Z,8.13
2019-02-17T00:40:13.963Z,7.37
2019-02-17T00:42:42.458Z,9.93
2019-02-17T00:45:10.992Z,10.13
2019-02-17T00:47:39.521Z,8.70
2019-02-17T00:50:09.077Z,9.05
2019-02-17T00:52:37.562Z,9.83
2019-02-17T00:55:06.611Z,10.65
2019-02-17T00:57:35.092Z,8.18
2019-02-17T01:00:05.280Z,9.13
2019-02-17T01:02:33.791Z,7.72
2019-02-17T01:05:02.287Z,12.85
2019-02-17T01:07:30.772Z,7.08
2019-02-17T01:09:59.247Z,9.05
2019-02-17T01:12:27.694Z,7.72
2019-02-17T01:14:56.298Z,11.88
2019-02-17T01:17:24.780Z,9.15
2019-02-17T01:19:53.198Z,7.70
2019-02-17T01:22:21.684Z,8.68
2019-02-17T01:24:50.135Z,8.98
2019-02-17T01:27:18.706Z,8.28
2019-02-17T01:29:47.291Z,6.80
2019-02-17T01:32:15.749Z,9.43
2019-02-17T01:34:44.249Z,7.83
2019-02-17T01:37:12.833Z,7.95
2019-02-17T01:39:42.791Z,8.28
2019-02-17T01:42:11.331Z,11.20
2019-02-17T01:44:39.826Z,11.00
2019-02-17T01:47:08.290Z,9.63
2019-02-17T01:49:36.774Z,10.35
2019-02-17T01:52:05.259Z,8.75
2019-02-17T01:54:34.655Z,10.43
2019-02-17T01:57:03.133Z,7.25
2019-02-17T01:59:32.025Z,7.97
2019-02-17T02:02:00.470Z,7.90
2019-02-17T02:04:28.927Z,8.13
2019-02-17T02:07:10.580Z,9.40
2019-02-17T02:09:39.024Z,8.50
2019-02-17T02:12:07.471Z,8.70
2019-02-17T02:14:35.967Z,8.20
2019-02-17T02:17:04.410Z,8.43
2019-02-17T02:19:32.856Z,9.78
2019-02-17T02:22:01.347Z,9.05
2019-02-17T02:24:29.788Z,9.80
2019-02-17T02:26:58.271Z,10.43
2019-02-17T02:29:26.721Z,10.75
2019-02-17T02:31:55.180Z,9.38
2019-02-17T02:34:23.672Z,6.97
2019-02-17T02:36:52.115Z,7.10
2019-02-17T02:39:20.563Z,11.00
2019-02-17T02:41:49.056Z,8.28
2019-02-17T02:44:17.499Z,9.30
2019-02-17T02:46:45.956Z,7.92
2019-02-17T02:49:14.443Z,8.55
2019-02-17T02:51:42.933Z,6.33
2019-02-17T02:54:11.323Z,7.65
2019-02-17T02:56:39.799Z,6.15
2019-02-17T02:59:08.248Z,7.37
2019-02-17T03:01:36.710Z,7.35
2019-02-17T03:04:05.238Z,12.73
2019-02-17T03:06:35.197Z,8.00
2019-02-17T03:09:04.147Z,7.55
2019-02-17T03:11:32.726Z,7.45
2019-02-17T03:14:01.196Z,8.20
2019-02-17T03:16:29.688Z,7.37
2019-02-17T03:18:58.138Z,8.75
2019-02-17T03:21:26.588Z,7.17
2019-02-17T03:23:55.033Z,7.70
2019-02-17T03:26:23.535Z,6.47
2019-02-17T03:28:52.096Z,5.85
2019-02-17T03:31:20.541Z,5.80
2019-02-17T03:33:49.020Z,6.75
2019-02-17T03:36:17.541Z,5.60
2019-02-17T03:38:45.956Z,7.03
2019-02-17T03:41:14.403Z,7.50
2019-02-17T03:43:42.980Z,8.60
2019-02-17T03:46:11.443Z,6.75
2019-02-17T03:48:39.887Z,9.25
2019-02-17T03:51:08.424Z,6.40
2019-02-17T03:53:36.827Z,7.03
2019-02-17T03:56:05.282Z,6.33
2019-02-17T03:58:33.779Z,7.08
2019-02-17T04:01:02.227Z,5.75
2019-02-17T04:03:30.674Z,7.28
2019-02-17T04:05:59.209Z,7.83
2019-02-17T04:08:27.638Z,6.28
2019-02-17T04:10:56.081Z,6.65
2019-02-17T04:13:24.651Z,6.97
2019-02-17T04:15:53.107Z,10.90
2019-02-17T04:18:21.555Z,6.65
2019-02-17T04:20:50.047Z,7.12
2019-02-17T04:23:18.496Z,5.60
2019-02-17T04:25:47.058Z,6.50
2019-02-17T04:28:15.539Z,7.00
2019-02-17T04:30:43.983Z,5.90
2019-02-17T04:33:12.429Z,8.18
2019-02-17T04:35:40.921Z,7.17
2019-02-17T04:38:09.364Z,6.72
2019-02-17T04:40:37.855Z,15.15
2019-02-17T04:43:06.425Z,21.95
2019-02-17T04:45:34.897Z,13.60
2019-02-17T04:48:03.351Z,10.70
2019-02-17T04:50:31.850Z,9.93
2019-02-17T04:53:00.310Z,12.95
2019-02-17T04:55:28.832Z,7.55
2019-02-17T04:57:57.343Z,8.00
2019-02-17T05:00:25.998Z,7.28
2019-02-17T05:02:54.470Z,7.47
2019-02-17T05:05:22.932Z,6.65
2019-02-17T05:07:51.446Z,5.92
2019-02-17T05:10:19.889Z,6.70
2019-02-17T05:12:48.357Z,6.78
2019-02-17T05:15:16.800Z,9.35
2019-02-17T05:17:45.374Z,9.13
2019-02-17T05:20:13.847Z,5.75
2019-02-17T05:22:42.292Z,8.98
2019-02-17T05:25:10.789Z,7.95
2019-02-17T05:27:39.294Z,10.15
2019-02-17T05:30:09.314Z,6.95
2019-02-17T05:32:37.846Z,8.90
2019-02-17T05:35:06.478Z,8.55
2019-02-17T05:37:34.935Z,6.10
2019-02-17T05:40:04.315Z,8.98
2019-02-17T05:42:32.774Z,6.83
2019-02-17T05:45:01.227Z,7.35
2019-02-17T05:47:29.808Z,12.43
2019-02-17T05:49:58.287Z,12.53
2019-02-17T05:52:26.771Z,6.30
2019-02-17T05:54:55.221Z,6.65
2019-02-17T05:57:23.664Z,6.45
2019-02-17T05:59:52.152Z,6.78
2019-02-17T06:02:20.595Z,8.08
2019-02-17T06:04:49.053Z,6.35
2019-02-17T06:07:17.651Z,6.72
2019-02-17T06:09:46.139Z,5.87
2019-02-17T06:12:14.587Z,9.18
2019-02-17T06:14:43.099Z,7.92
2019-02-17T06:17:11.583Z,6.25
2019-02-17T06:19:40.161Z,7.33
2019-02-17T06:22:08.643Z,5.28
2019-02-17T06:24:37.121Z,5.58
2019-02-17T06:27:05.563Z,6.08
2019-02-17T06:29:34.072Z,6.97
2019-02-17T06:32:02.669Z,6.10
2019-02-17T06:34:31.106Z,7.42
2019-02-17T06:36:59.547Z,6.08
2019-02-17T06:39:28.112Z,9.10
2019-02-17T06:41:56.596Z,7.70
2019-02-17T06:44:25.043Z,8.43
2019-02-17T06:46:54.927Z,6.97
2019-02-17T06:49:23.380Z,7.62
2019-02-17T06:51:51.829Z,8.13
2019-02-17T06:54:20.433Z,8.63
2019-02-17T06:56:50.554Z,9.20
2019-02-17T06:59:19.023Z,7.70
2019-02-17T07:01:47.516Z,11.38
2019-02-17T07:04:15.912Z,9.43
2019-02-17T07:06:46.020Z,12.30
2019-02-17T07:09:14.438Z,10.00
2019-02-17T07:11:42.976Z,8.03
2019-02-17T07:14:11.561Z,8.45
2019-02-17T07:16:40.027Z,7.17
2019-02-17T07:19:08.683Z,7.20
2019-02-17T07:21:37.208Z,6.72
2019-02-17T07:24:05.595Z,6.50
2019-02-17T07:26:34.111Z,6.33
2019-02-17T07:29:02.555Z,7.08
2019-02-17T07:31:34.825Z,9.20
2019-02-17T07:34:01.144Z,8.10
2019-02-17T07:36:29.583Z,9.25
2019-02-17T07:38:58.119Z,8.18
2019-02-17T07:41:26.698Z,7.22
2019-02-17T07:43:55.196Z,10.23
2019-02-17T07:46:23.758Z,8.83
2019-02-17T07:49:11.593Z,6.30
2019-02-17T07:51:40.178Z,8.00
2019-02-17T07:54:08.658Z,7.42
2019-02-17T07:56:37.139Z,8.98
2019-02-17T07:59:05.576Z,7.75
2019-02-17T08:01:33.999Z,7.08
2019-02-17T08:04:02.500Z,9.80
2019-02-17T08:06:30.941Z,10.45
2019-02-17T08:08:59.390Z,9.10
2019-02-17T08:11:27.879Z,9.65
2019-02-17T08:13:56.404Z,10.40
2019-02-17T08:16:24.888Z,12.25
2019-02-17T08:18:53.469Z,11.93
2019-02-17T08:21:21.941Z,14.60
2019-02-17T08:23:50.843Z,16.70
2019-02-17T08:26:19.296Z,15.90
2019-02-17T08:28:48.004Z,16.80
2019-02-17T08:31:16.443Z,14.33
2019-02-17T08:33:45.381Z,19.63
2019-02-17T08:36:14.179Z,26.23
2019-02-17T08:38:43.059Z,24.23
2019-02-17T08:41:11.950Z,24.27
2019-02-17T08:43:40.763Z,26.80
2019-02-17T08:46:09.629Z,25.37
2019-02-17T08:48:38.521Z,29.77
2019-02-17T08:51:07.353Z,33.37
2019-02-17T08:53:36.201Z,32.90
2019-02-17T08:56:05.086Z,28.07
2019-02-17T08:58:33.982Z,31.87
2019-02-17T09:01:02.771Z,31.60
2019-02-17T09:03:31.762Z,34.03
2019-02-17T09:06:00.653Z,32.97
2019-02-17T09:08:29.544Z,33.80
2019-02-17T09:10:58.540Z,33.73
2019-02-17T09:13:27.421Z,36.00
2019-02-17T09:15:56.420Z,35.07
2019-02-17T09:18:25.306Z,34.67
2019-02-17T09:20:54.204Z,35.67
2019-02-17T09:23:23.093Z,40.27
2019-02-17T09:25:52.009Z,41.77
2019-02-17T09:28:20.870Z,43.00
2019-02-17T09:30:49.759Z,42.70
2019-02-17T09:33:18.652Z,41.57
2019-02-17T09:35:47.649Z,41.33
2019-02-17T09:38:17.185Z,44.30
2019-02-17T09:40:46.864Z,46.30
2019-02-17T09:43:15.859Z,42.13
2019-02-17T09:45:44.850Z,40.27
2019-02-17T09:48:13.744Z,39.73
2019-02-17T09:50:42.632Z,42.17
2019-02-17T09:53:11.524Z,41.70
2019-02-17T09:55:40.515Z,45.20
2019-02-17T09:58:09.509Z,45.37
2019-02-17T10:00:38.404Z,48.23
2019-02-17T10:03:07.293Z,47.03
2019-02-17T10:05:36.184Z,45.60
2019-02-17T10:08:05.176Z,47.37
2019-02-17T10:10:34.064Z,44.57
2019-02-17T10:13:02.955Z,46.90
2019-02-17T10:15:31.847Z,50.27
2019-02-17T10:18:00.840Z,50.90
2019-02-17T10:20:29.731Z,52.80
2019-02-17T10:22:58.548Z,48.43
2019-02-17T10:25:27.401Z,52.20
2019-02-17T10:27:56.403Z,49.37
2019-02-17T10:30:25.298Z,50.37
2019-02-17T10:32:54.183Z,49.60
2019-02-17T10:35:23.179Z,51.77
2019-02-17T10:37:52.071Z,52.87
2019-02-17T10:40:20.960Z,51.23
2019-02-17T10:42:49.792Z,52.67
2019-02-17T10:45:18.652Z,57.53
2019-02-17T10:47:47.631Z,51.40
2019-02-17T10:50:16.491Z,47.63
2019-02-17T10:52:45.412Z,52.80
2019-02-17T10:55:15.327Z,50.60
2019-02-17T10:57:44.320Z,47.73
2019-02-17T11:00:17.923Z,53.13
2019-02-17T11:02:47.709Z,55.73
2019-02-17T11:05:18.058Z,46.63
2019-02-17T11:07:47.051Z,45.40
2019-02-17T11:10:15.912Z,44.07
2019-02-17T11:12:44.937Z,45.53
2019-02-17T11:15:19.251Z,45.10
2019-02-17T11:17:48.144Z,46.93
2019-02-17T11:20:17.005Z,49.83
2019-02-17T11:22:45.925Z,41.50
2019-02-17T11:25:14.820Z,41.60
2019-02-17T11:27:43.809Z,38.60
2019-02-17T11:30:18.423Z,37.37
2019-02-17T11:32:57.203Z,38.60
2019-02-17T11:35:17.858Z,37.53
2019-02-17T11:37:51.432Z,36.37
2019-02-17T11:40:20.346Z,42.13
2019-02-17T11:42:49.238Z,42.40
2019-02-17T11:45:19.308Z,35.50
2019-02-17T11:47:48.247Z,33.20
2019-02-17T11:50:17.057Z,36.10
2019-02-17T11:52:46.029Z,35.87
2019-02-17T11:55:16.462Z,36.33
2019-02-17T11:57:45.450Z,35.43
2019-02-17T12:00:22.533Z,32.40
2019-02-17T12:02:51.425Z,36.90
2019-02-17T12:05:20.313Z,34.57
2019-02-17T12:07:49.306Z,32.33
2019-02-17T12:10:18.300Z,34.17
2019-02-17T12:12:47.311Z,31.57
2019-02-17T12:15:16.938Z,32.40
2019-02-17T12:17:45.827Z,29.83
2019-02-17T12:20:39.052Z,30.57
2019-02-17T12:23:09.476Z,28.50
2019-02-17T12:25:42.776Z,30.80
2019-02-17T12:28:13.199Z,32.13
2019-02-17T12:30:43.422Z,29.60
2019-02-17T12:33:18.515Z,32.50
2019-02-17T12:35:42.945Z,30.07
2019-02-17T12:38:11.835Z,32.93
2019-02-17T12:40:40.827Z,29.63
2019-02-17T12:43:09.719Z,32.60
2019-02-17T12:45:38.701Z,31.10
2019-02-17T12:48:07.604Z,30.27
2019-02-17T12:50:36.596Z,30.40
2019-02-17T12:53:05.487Z,28.63
2019-02-17T12:55:34.483Z,31.60
2019-02-17T12:58:03.370Z,32.97
2019-02-17T13:00:31.851Z,26.33
2019-02-17T13:03:00.333Z,30.00
2019-02-17T13:05:28.916Z,30.17
2019-02-17T13:07:57.398Z,26.20
2019-02-17T13:10:25.876Z,30.13
2019-02-17T13:12:54.368Z,27.67
2019-02-17T13:15:22.840Z,30.13
2019-02-17T13:17:52.973Z,26.23
2019-02-17T13:20:21.468Z,27.13
2019-02-17T13:22:49.926Z,27.10
2019-02-17T13:25:19.072Z,26.30
2019-02-17T13:27:47.554Z,30.93
2019-02-17T13:30:17.516Z,26.43
2019-02-17T13:32:45.935Z,29.00
2019-02-17T13:35:14.430Z,29.60
2019-02-17T13:37:42.879Z,26.37
2019-02-17T13:40:13.180Z,30.33
2019-02-17T13:42:41.634Z,29.70
2019-02-17T13:45:11.673Z,27.80
2019-02-17T13:47:40.127Z,29.47
2019-02-17T13:50:12.951Z,28.40
2019-02-17T13:52:41.415Z,30.33
2019-02-17T13:55:10.826Z,29.33
2019-02-17T13:57:39.349Z,30.47
2019-02-17T14:00:09.324Z,26.23
2019-02-17T14:02:37.723Z,27.10
2019-02-17T14:05:07.431Z,29.03
2019-02-17T14:07:35.891Z,26.20
2019-02-17T14:10:05.387Z,30.20
2019-02-17T14:12:33.909Z,30.53
2019-02-17T14:15:02.365Z,36.40
2019-02-17T14:17:30.843Z,28.40
2019-02-17T14:19:59.320Z,27.63
2019-02-17T14:22:27.910Z,32.70
2019-02-17T14:24:56.387Z,30.10
2019-02-17T14:27:24.915Z,26.60
2019-02-17T14:29:53.453Z,26.97
2019-02-17T14:32:21.935Z,26.03
2019-02-17T14:34:50.511Z,28.97
2019-02-17T14:37:20.128Z,28.23
2019-02-17T14:39:49.039Z,28.40
2019-02-17T14:42:18.012Z,25.20
2019-02-17T14:44:47.048Z,27.80
2019-02-17T14:47:15.893Z,30.00
2019-02-17T14:49:44.784Z,27.87
2019-02-17T14:52:13.776Z,28.50
2019-02-17T14:54:42.668Z,33.23
2019-02-17T14:57:11.558Z,27.30
2019-02-17T14:59:40.449Z,25.87
2019-02-17T15:02:09.284Z,31.90
2019-02-17T15:04:38.236Z,30.20
2019-02-17T15:07:07.223Z,31.27
2019-02-17T15:09:36.109Z,23.77
2019-02-17T15:12:05.111Z,24.43
2019-02-17T15:14:34.102Z,26.80
2019-02-17T15:17:02.991Z,24.50
2019-02-17T15:19:31.883Z,26.37
2019-02-17T15:22:00.816Z,27.50
2019-02-17T15:24:29.766Z,23.97
2019-02-17T15:26:58.641Z,27.60
2019-02-17T15:29:27.651Z,23.63
2019-02-17T15:31:56.500Z,29.93
2019-02-17T15:34:24.958Z,25.57
2019-02-17T15:36:53.914Z,26.40
2019-02-17T15:39:22.905Z,29.30
2019-02-17T15:41:52.001Z,26.40
2019-02-17T15:44:20.835Z,27.43
2019-02-17T15:46:49.784Z,29.70
2019-02-17T15:49:18.672Z,26.80
2019-02-17T15:51:47.163Z,23.67
2019-02-17T15:54:15.737Z,21.40
2019-02-17T15:56:44.214Z,21.23
2019-02-17T15:59:12.671Z,22.80
2019-02-17T16:01:41.179Z,23.43
2019-02-17T16:04:10.079Z,20.07
2019-02-17T16:06:38.487Z,22.53
2019-02-17T16:09:07.135Z,21.40
2019-02-17T16:11:35.550Z,20.40
2019-02-17T16:14:04.117Z,23.33
2019-02-17T16:16:32.612Z,23.80
2019-02-17T16:19:01.161Z,18.73
2019-02-17T16:21:29.627Z,20.30
2019-02-17T16:23:58.226Z,20.60
2019-02-17T16:26:26.810Z,24.53
2019-02-17T16:28:55.287Z,23.03
2019-02-17T16:31:23.745Z,27.60
2019-02-17T16:33:52.252Z,26.60
2019-02-17T16:36:20.694Z,21.33
2019-02-17T16:38:49.215Z,23.87
2019-02-17T16:41:17.779Z,22.80
2019-02-17T16:43:46.195Z,20.37
2019-02-17T16:46:14.655Z,23.13
2019-02-17T16:48:43.241Z,19.90
2019-02-17T16:51:11.825Z,26.00
2019-02-17T16:53:40.311Z,20.43
2019-02-17T16:56:08.815Z,22.07
2019-02-17T16:58:37.271Z,25.63
2019-02-17T17:01:05.730Z,26.17
2019-02-17T17:03:34.223Z,21.90
2019-02-17T17:06:02.817Z,27.33
2019-02-17T17:08:31.268Z,22.60
2019-02-17T17:10:59.770Z,22.47
2019-02-17T17:13:31.126Z,27.73
2019-02-17T17:15:59.660Z,24.10
2019-02-17T17:18:28.311Z,20.50
2019-02-17T17:20:57.487Z,19.43
2019-02-17T17:23:25.932Z,20.90
2019-02-17T17:25:54.387Z,21.50
2019-02-17T17:28:22.891Z,19.00
2019-02-17T17:30:51.362Z,24.53
2019-02-17T17:33:19.813Z,20.37
2019-02-17T17:35:48.304Z,20.27
2019-02-17T17:38:16.762Z,24.40
2019-02-17T17:40:45.210Z,29.55
2019-02-17T17:43:13.754Z,21.87
2019-02-17T17:45:42.195Z,23.65
2019-02-17T17:48:10.663Z,26.20
2019-02-17T17:50:39.202Z,22.83
2019-02-17T17:53:07.642Z,24.80
2019-02-17T17:55:36.129Z,22.93
2019-02-17T17:58:04.633Z,24.67
2019-02-17T18:00:34.655Z,25.73
2019-02-17T18:03:03.122Z,33.30
2019-02-17T18:05:31.624Z,36.58
2019-02-17T18:08:00.102Z,86.17
2019-02-17T18:10:28.575Z,70.80
2019-02-17T18:12:57.089Z,40.35
2019-02-17T18:15:25.616Z,35.98
2019-02-17T18:17:55.086Z,29.50
2019-02-17T18:20:23.652Z,26.12
2019-02-17T18:22:52.123Z,24.60
2019-02-17T18:25:20.617Z,24.37
2019-02-17T18:27:49.103Z,26.90
2019-02-17T18:30:18.177Z,33.05
2019-02-17T18:32:46.663Z,27.62
2019-02-17T18:35:19.895Z,30.80
2019-02-17T18:37:45.279Z,29.45
2019-02-17T18:40:14.631Z,31.80
2019-02-17T18:42:43.380Z,24.40
2019-02-17T18:45:15.606Z,25.68
2019-02-17T18:47:44.363Z,29.20
2019-02-17T18:50:13.944Z,31.42
2019-02-17T18:52:42.431Z,35.25
2019-02-17T18:55:11.801Z,27.77
2019-02-17T18:57:49.498Z,26.97
2019-02-17T19:00:11.842Z,26.25
2019-02-17T19:02:40.292Z,26.48
2019-02-17T19:05:09.587Z,27.65
2019-02-17T19:07:38.045Z,28.10
2019-02-17T19:10:08.192Z,29.40
2019-02-17T19:12:36.680Z,27.70
2019-02-17T19:15:06.327Z,29.85
2019-02-17T19:17:35.031Z,29.80
2019-02-17T19:20:03.694Z,34.35
2019-02-17T19:22:32.172Z,28.90
2019-02-17T19:25:00.614Z,39.95
2019-02-17T19:27:29.336Z,29.90
2019-02-17T19:29:57.785Z,34.65
2019-02-17T19:32:26.241Z,28.38
2019-02-17T19:34:54.732Z,33.53
2019-02-17T19:37:23.223Z,24.20
2019-02-17T19:39:51.655Z,26.52
2019-02-17T19:42:20.127Z,27.80
2019-02-17T19:44:48.595Z,24.00
2019-02-17T19:47:17.045Z,33.75
2019-02-17T19:49:45.556Z,36.60
2019-02-17T19:52:14.121Z,27.62
2019-02-17T19:54:42.593Z,27.27
2019-02-17T19:57:11.130Z,29.70
2019-02-17T19:59:39.687Z,25.68
2019-02-17T20:02:08.151Z,29.50
2019-02-17T20:04:38.220Z,22.40
2019-02-17T20:07:06.714Z,27.70
2019-02-17T20:09:35.161Z,25.15
2019-02-17T20:12:03.603Z,26.93
2019-02-17T20:14:32.093Z,28.87
2019-02-17T20:17:00.555Z,29.60
2019-02-17T20:19:29.071Z,25.48
2019-02-17T20:21:57.536Z,25.80
2019-02-17T20:24:26.027Z,26.95
2019-02-17T20:26:54.483Z,24.50
2019-02-17T20:29:22.972Z,23.30
2019-02-17T20:31:51.473Z,26.35
2019-02-17T20:34:19.920Z,22.98
2019-02-17T20:36:48.384Z,23.47
2019-02-17T20:39:16.892Z,26.05
2019-02-17T20:41:45.352Z,34.48
2019-02-17T20:44:13.797Z,27.80
2019-02-17T20:46:42.597Z,29.35
2019-02-17T20:49:11.058Z,31.12
2019-02-17T20:51:39.515Z,29.35
2019-02-17T20:54:08.008Z,30.35
2019-02-17T20:56:36.457Z,26.45
2019-02-17T20:59:04.911Z,30.17
2019-02-17T21:01:33.414Z,36.17
2019-02-17T21:04:01.869Z,28.57
2019-02-17T21:06:30.335Z,25.35
2019-02-17T21:08:58.929Z,28.80
2019-02-17T21:11:27.580Z,30.43
2019-02-17T21:13:56.086Z,26.90
2019-02-17T21:16:24.566Z,27.27
2019-02-17T21:18:53.010Z,25.72
2019-02-17T21:21:21.491Z,25.68
2019-02-17T21:23:49.983Z,32.23
2019-02-17T21:26:18.525Z,30.37
2019-02-17T21:28:47.000Z,24.50
2019-02-17T21:31:15.487Z,25.55
2019-02-17T21:33:43.931Z,31.00
2019-02-17T21:36:22.579Z,28.02
2019-02-17T21:38:42.530Z,26.50
2019-02-17T21:41:11.050Z,28.12
2019-02-17T21:43:39.531Z,30.10
2019-02-17T21:46:07.936Z,29.92
2019-02-17T21:48:36.436Z,29.40
2019-02-17T21:51:24.174Z,27.90
2019-02-17T21:53:52.668Z,29.52
2019-02-17T21:56:21.188Z,28.02
2019-02-17T21:58:49.683Z,31.23
2019-02-17T22:01:18.182Z,24.25
2019-02-17T22:03:46.735Z,27.32
2019-02-17T22:06:15.229Z,27.60
2019-02-17T22:08:43.724Z,29.80
2019-02-17T22:11:12.179Z,25.80
2019-02-17T22:13:40.644Z,32.05
2019-02-17T22:16:09.134Z,30.68
2019-02-17T22:18:37.620Z,33.88
2019-02-17T22:21:06.038Z,27.42
2019-02-17T22:23:34.582Z,31.33
2019-02-17T22:26:03.065Z,25.80
2019-02-17T22:28:31.539Z,32.67
2019-02-17T22:31:00.027Z,28.83
2019-02-17T22:33:28.485Z,28.35
2019-02-17T22:35:56.943Z,28.50
2019-02-17T22:38:25.426Z,27.27
2019-02-17T22:40:53.888Z,27.70
2019-02-17T22:43:22.431Z,28.98
2019-02-17T22:45:50.841Z,25.77
2019-02-17T22:48:19.292Z,26.05
2019-02-17T22:50:47.876Z,27.25
2019-02-17T22:53:16.339Z,25.37
2019-02-17T22:55:44.794Z,28.67
2019-02-17T22:58:13.325Z,24.05
2019-02-17T23:00:57.846Z,25.25
2019-02-17T23:03:26.754Z,24.92
2019-02-17T23:05:55.246Z,25.80
2019-02-17T23:08:23.726Z,23.22
2019-02-17T23:10:52.255Z,29.23
2019-02-17T23:13:20.707Z,26.12
2019-02-17T23:15:49.267Z,28.98
2019-02-17T23:18:17.761Z,27.62
2019-02-17T23:20:46.222Z,29.75
2019-02-17T23:23:14.675Z,25.00
2019-02-17T23:25:43.169Z,28.02
2019-02-17T23:28:11.612Z,27.98
2019-02-17T23:30:40.158Z,25.52
2019-02-17T23:33:08.559Z,29.77
2019-02-17T23:35:37.018Z,24.65
2019-02-17T23:38:05.601Z,26.97
2019-02-17T23:40:34.184Z,32.50
2019-02-17T23:43:02.650Z,27.73
2019-02-17T23:45:31.245Z,25.90
2019-02-17T23:47:59.694Z,25.52
2019-02-17T23:50:28.205Z,29.12
2019-02-17T23:52:56.692Z,24.65
2019-02-17T23:55:25.476Z,25.65
2019-02-17T23:57:54.015Z,23.42
